< < Back
Terminal Aerodrome Forecast


Current Version              Previous Versions:   1  2  3  4  5  6  7  8  9  

Terminal Aerodrome Forecast

481
FTUS44 KBMX 041722
TAFMGM
TAF
KMGM 041722Z 0418/0518 VRB05KT P6SM SCT050=

Latest METAR

918
SAUS80 KWBC 041900
MTRMGM
METAR KMGM 041853Z VRB04KT 10SM CLR 37/14 A2998 RMK AO2 SLP149
T03720139


USA.gov is the U.S. government's official web portal to all federal, state and local government web resources and services.